Terminal Aerodrome Forecast
Issued by NWS Newport/Morehead City, NC

Home | Current Version | Previous Version | Text Only | Print | Product List | Glossary On
Versions: 1 2 3 4 5 6 7 8 9 10 11 12 13 14 15 16 17 18 19
327
FTUS42 KMHX 120556
TAFEWN
TAF
KEWN 120556Z 1206/1306 00000KT P6SM SCT100
     FM121500 05010KT 4SM -SNPL OVC020
     FM121700 07005KT 2SM -FZRAPL OVC007
     FM122100 02005KT 4SM -RAPL OVC005
     FM130300 30005KT P6SM SCT010=

USA.gov is the U.S. government's official web portal to all federal, state and local government web resources and services.